createdAt,value
2018-02-19T00:00:43.740Z,91.83
2018-02-19T00:03:11.215Z,91.86
2018-02-19T00:05:38.705Z,91.77
2018-02-19T00:08:06.182Z,91.84
2018-02-19T00:10:33.688Z,91.88
2018-02-19T00:13:01.165Z,91.96
2018-02-19T00:15:28.646Z,92.02
2018-02-19T00:17:56.118Z,91.94
2018-02-19T00:20:23.616Z,91.96
2018-02-19T00:22:51.092Z,91.93
2018-02-19T00:25:18.583Z,92.10
2018-02-19T00:27:46.056Z,92.12
2018-02-19T00:30:13.541Z,92.22
2018-02-19T00:32:41.067Z,92.31
2018-02-19T00:35:08.530Z,92.30
2018-02-19T00:37:36.007Z,92.17
2018-02-19T00:40:03.498Z,92.12
2018-02-19T00:42:30.968Z,92.10
2018-02-19T00:44:58.455Z,92.04
2018-02-19T00:47:25.928Z,91.96
2018-02-19T00:49:53.429Z,92.02
2018-02-19T00:52:20.898Z,91.95
2018-02-19T00:54:48.369Z,91.96
2018-02-19T00:57:15.878Z,91.97
2018-02-19T00:59:43.344Z,92.08
2018-02-19T01:02:10.834Z,92.19
2018-02-19T01:04:38.359Z,92.20
2018-02-19T01:07:05.845Z,92.27
2018-02-19T01:09:33.318Z,92.27
2018-02-19T01:12:00.804Z,92.30
2018-02-19T01:14:29.227Z,92.29
2018-02-19T01:16:56.724Z,92.30
2018-02-19T01:19:24.206Z,92.33
2018-02-19T01:21:51.702Z,92.29
2018-02-19T01:24:19.180Z,92.21
2018-02-19T01:26:46.672Z,92.15
2018-02-19T01:29:14.138Z,92.07
2018-02-19T01:31:41.658Z,92.12
2018-02-19T01:34:09.138Z,91.98
2018-02-19T01:36:36.628Z,91.79
2018-02-19T01:39:04.102Z,91.73
2018-02-19T01:41:31.591Z,91.53
2018-02-19T01:43:59.068Z,90.89
2018-02-19T01:46:26.556Z,90.72
2018-02-19T01:48:54.029Z,90.72
2018-02-19T01:51:21.522Z,90.75
2018-02-19T01:53:48.992Z,90.74
2018-02-19T01:56:16.479Z,90.87
2018-02-19T01:58:43.947Z,90.74
2018-02-19T02:01:11.434Z,90.48
2018-02-19T02:03:38.903Z,89.80
2018-02-19T02:06:06.394Z,89.90
2018-02-19T02:08:33.879Z,90.04
2018-02-19T02:11:01.367Z,90.25
2018-02-19T02:13:28.845Z,90.38
2018-02-19T02:15:56.336Z,90.63
2018-02-19T02:18:23.807Z,90.77
2018-02-19T02:20:51.278Z,90.93
2018-02-19T02:23:18.776Z,91.06
2018-02-19T02:25:46.249Z,91.23
2018-02-19T02:28:13.745Z,91.27
2018-02-19T02:30:41.224Z,91.35
2018-02-19T02:33:08.720Z,91.40
2018-02-19T02:35:36.192Z,91.44
2018-02-19T02:38:03.683Z,91.59
2018-02-19T02:40:31.164Z,91.73
2018-02-19T02:42:58.659Z,91.83
2018-02-19T02:45:26.133Z,91.95
2018-02-19T02:47:53.635Z,92.07
2018-02-19T02:50:21.111Z,92.19
2018-02-19T02:52:48.595Z,92.34
2018-02-19T02:55:16.069Z,92.42
2018-02-19T02:57:43.559Z,92.48
2018-02-19T03:00:11.033Z,92.54
2018-02-19T03:02:38.524Z,92.65
2018-02-19T03:05:05.993Z,92.69
2018-02-19T03:07:33.484Z,92.77
2018-02-19T03:10:00.951Z,92.83
2018-02-19T03:12:28.434Z,92.88
2018-02-19T03:14:55.904Z,92.91
2018-02-19T03:17:23.395Z,92.99
2018-02-19T03:19:50.862Z,92.98
2018-02-19T03:22:18.359Z,93.01
2018-02-19T03:24:45.836Z,93.06
2018-02-19T03:27:13.336Z,93.11
2018-02-19T03:29:40.805Z,93.16
2018-02-19T03:32:08.295Z,93.19
2018-02-19T03:34:35.763Z,93.21
2018-02-19T03:37:03.251Z,93.25
2018-02-19T03:39:30.734Z,93.21
2018-02-19T03:41:58.228Z,93.15
2018-02-19T03:44:25.702Z,93.03
2018-02-19T03:46:53.175Z,92.93
2018-02-19T03:49:20.672Z,92.91
2018-02-19T03:51:48.150Z,92.90
2018-02-19T03:54:15.648Z,92.85
2018-02-19T03:56:43.134Z,92.90
2018-02-19T03:59:10.618Z,93.07
2018-02-19T04:01:38.091Z,92.89
2018-02-19T04:04:05.574Z,92.90
2018-02-19T04:06:33.043Z,92.91
2018-02-19T04:09:00.533Z,92.85
2018-02-19T04:11:28.002Z,92.72
2018-02-19T04:13:55.491Z,92.73
2018-02-19T04:16:22.954Z,92.69
2018-02-19T04:18:50.444Z,92.54
2018-02-19T04:21:18.569Z,92.46
2018-02-19T04:23:46.100Z,92.18
2018-02-19T04:26:13.563Z,91.98
2018-02-19T04:28:41.058Z,91.94
2018-02-19T04:31:08.547Z,91.89
2018-02-19T04:33:36.044Z,91.72
2018-02-19T04:36:03.563Z,91.48
2018-02-19T04:38:31.051Z,91.41
2018-02-19T04:40:58.514Z,91.24
2018-02-19T04:43:26.004Z,91.20
2018-02-19T04:46:01.995Z,91.02
2018-02-19T04:48:36.679Z,90.94
2018-02-19T04:51:04.148Z,90.63
2018-02-19T04:53:31.690Z,90.38
2018-02-19T04:55:59.160Z,90.05
2018-02-19T04:58:26.653Z,89.82
2018-02-19T05:00:54.133Z,89.74
2018-02-19T05:03:21.632Z,89.57
2018-02-19T05:05:49.102Z,89.43
2018-02-19T05:08:16.595Z,89.04
2018-02-19T05:10:44.059Z,87.86
2018-02-19T05:13:11.548Z,87.71
2018-02-19T05:15:39.024Z,87.71
2018-02-19T05:18:06.516Z,87.78
2018-02-19T05:20:33.992Z,87.93
2018-02-19T05:23:01.499Z,87.90
2018-02-19T05:25:28.963Z,87.93
2018-02-19T05:27:56.438Z,87.98
2018-02-19T05:30:23.939Z,88.06
2018-02-19T05:32:51.416Z,87.96
2018-02-19T05:35:18.910Z,87.85
2018-02-19T05:37:46.374Z,86.94
2018-02-19T05:40:13.866Z,86.77
2018-02-19T05:42:41.343Z,86.42
2018-02-19T05:45:08.840Z,86.87
2018-02-19T05:47:36.365Z,86.70
2018-02-19T05:50:03.838Z,86.52
2018-02-19T05:52:31.306Z,86.36
2018-02-19T05:54:59.251Z,86.32
2018-02-19T05:57:26.716Z,86.37
2018-02-19T05:59:54.211Z,86.28
2018-02-19T06:02:21.685Z,86.25
2018-02-19T06:04:49.182Z,86.15
2018-02-19T06:07:16.676Z,86.27
2018-02-19T06:09:44.174Z,86.17
2018-02-19T06:12:11.652Z,86.11
2018-02-19T06:14:39.143Z,86.22
2018-02-19T06:17:06.621Z,86.34
2018-02-19T06:19:34.122Z,86.29
2018-02-19T06:22:01.599Z,85.86
2018-02-19T06:24:29.092Z,85.21
2018-02-19T06:26:56.572Z,84.73
2018-02-19T06:29:24.662Z,84.13
2018-02-19T06:31:52.143Z,84.54
2018-02-19T06:34:19.652Z,84.77
2018-02-19T06:36:47.112Z,84.95
2018-02-19T06:39:14.608Z,85.13
2018-02-19T06:41:42.092Z,85.11
2018-02-19T06:44:10.363Z,85.24
2018-02-19T06:46:38.775Z,85.31
2018-02-19T06:49:06.239Z,85.52
2018-02-19T06:51:33.736Z,85.36
2018-02-19T06:54:01.215Z,85.15
2018-02-19T06:56:28.709Z,85.20
2018-02-19T06:58:56.200Z,84.84
2018-02-19T07:01:23.703Z,84.72
2018-02-19T07:03:51.180Z,84.57
2018-02-19T07:06:18.755Z,84.64
2018-02-19T07:08:46.217Z,84.76
2018-02-19T07:11:13.711Z,83.68
2018-02-19T07:13:41.188Z,84.18
2018-02-19T07:16:08.680Z,84.33
2018-02-19T07:18:36.146Z,84.04
2018-02-19T07:21:03.676Z,84.72
2018-02-19T07:23:31.395Z,83.88
2018-02-19T07:25:58.900Z,83.52
2018-02-19T07:28:26.371Z,83.38
2018-02-19T07:30:53.852Z,83.32
2018-02-19T07:33:21.331Z,83.87
2018-02-19T07:35:48.832Z,83.75
2018-02-19T07:38:16.303Z,84.21
2018-02-19T07:40:43.812Z,84.38
2018-02-19T07:43:11.284Z,84.24
2018-02-19T07:45:38.771Z,83.80
2018-02-19T07:48:07.172Z,83.44
2018-02-19T07:50:34.693Z,83.07
2018-02-19T07:53:12.100Z,83.10
2018-02-19T07:55:39.600Z,83.03
2018-02-19T07:58:07.079Z,82.45
2018-02-19T08:00:34.567Z,81.86
2018-02-19T08:03:02.027Z,81.45
2018-02-19T08:05:30.353Z,80.47
2018-02-19T08:07:57.824Z,81.31
2018-02-19T08:10:25.307Z,80.95
2018-02-19T08:12:52.776Z,81.03
2018-02-19T08:15:20.268Z,81.06
2018-02-19T08:17:47.744Z,80.14
2018-02-19T08:20:15.239Z,79.38
2018-02-19T08:22:42.720Z,78.49
2018-02-19T08:25:10.179Z,77.87
2018-02-19T08:27:37.668Z,77.24
2018-02-19T08:30:05.151Z,76.72
2018-02-19T08:32:32.651Z,76.90
2018-02-19T08:35:00.148Z,76.62
2018-02-19T08:37:27.647Z,76.08
2018-02-19T08:40:01.076Z,76.80
2018-02-19T08:42:28.567Z,77.14
2018-02-19T08:44:56.036Z,76.18
2018-02-19T08:47:23.519Z,76.00
2018-02-19T08:49:51.009Z,76.71
2018-02-19T08:52:18.497Z,76.98
2018-02-19T08:54:46.057Z,76.54
2018-02-19T08:57:13.599Z,76.23
2018-02-19T08:59:41.099Z,76.47
2018-02-19T09:02:08.581Z,75.66
2018-02-19T09:04:36.047Z,76.24
2018-02-19T09:07:03.531Z,75.15
2018-02-19T09:09:30.998Z,74.07
2018-02-19T09:11:58.479Z,72.24
2018-02-19T09:14:25.955Z,74.27
2018-02-19T09:16:54.167Z,72.32
2018-02-19T09:19:21.631Z,73.05
2018-02-19T09:21:49.119Z,76.94
2018-02-19T09:24:17.515Z,75.07
2018-02-19T09:26:45.004Z,74.27
2018-02-19T09:29:12.483Z,76.57
2018-02-19T09:31:39.973Z,76.59
2018-02-19T09:34:07.469Z,76.25
2018-02-19T09:36:34.961Z,74.88
2018-02-19T09:39:02.423Z,73.38
2018-02-19T09:41:29.918Z,72.49
2018-02-19T09:43:57.387Z,73.20
2018-02-19T09:46:24.879Z,75.89
2018-02-19T09:48:52.354Z,74.06
2018-02-19T09:51:19.815Z,73.51
2018-02-19T09:53:47.294Z,72.61
2018-02-19T09:56:14.778Z,71.33
2018-02-19T09:58:42.258Z,70.08
2018-02-19T10:01:09.723Z,69.54
2018-02-19T10:03:37.207Z,68.50
2018-02-19T10:06:04.682Z,69.54
2018-02-19T10:08:32.203Z,70.43
2018-02-19T10:10:59.673Z,69.08
2018-02-19T10:13:27.162Z,70.87
2018-02-19T10:15:54.656Z,70.26
2018-02-19T10:18:22.143Z,69.41
2018-02-19T10:20:49.611Z,68.18
2018-02-19T10:23:17.103Z,67.60
2018-02-19T10:25:44.569Z,67.64
2018-02-19T10:28:13.559Z,65.92
2018-02-19T10:30:43.008Z,66.40
2018-02-19T10:33:16.599Z,65.85
2018-02-19T10:35:44.068Z,68.60
2018-02-19T10:38:11.558Z,67.67
2018-02-19T10:40:39.032Z,69.90
2018-02-19T10:43:06.524Z,67.74
2018-02-19T10:45:33.993Z,66.89
2018-02-19T10:48:01.475Z,65.04
2018-02-19T10:50:28.949Z,67.01
2018-02-19T10:52:56.443Z,66.21
2018-02-19T10:55:23.922Z,66.06
2018-02-19T10:57:51.402Z,65.67
2018-02-19T11:00:24.548Z,63.75
2018-02-19T11:02:52.069Z,62.77
2018-02-19T11:05:19.557Z,62.82
2018-02-19T11:07:57.032Z,62.00
2018-02-19T11:10:24.503Z,63.89
2018-02-19T11:12:51.983Z,62.60
2018-02-19T11:15:19.459Z,61.42
2018-02-19T11:17:46.960Z,60.91
2018-02-19T11:20:14.479Z,60.43
2018-02-19T11:22:41.967Z,59.74
2018-02-19T11:25:09.430Z,59.73
2018-02-19T11:27:36.928Z,59.67
2018-02-19T11:30:04.392Z,60.90
2018-02-19T11:32:31.885Z,60.89
2018-02-19T11:34:59.377Z,60.78
2018-02-19T11:37:26.851Z,62.73
2018-02-19T11:39:54.331Z,63.18
2018-02-19T11:42:21.801Z,61.13
2018-02-19T11:44:49.304Z,60.17
2018-02-19T11:47:16.772Z,61.77
2018-02-19T11:49:44.264Z,59.72
2018-02-19T11:52:11.731Z,59.66
2018-02-19T11:54:42.339Z,59.73
2018-02-19T11:57:09.812Z,62.13
2018-02-19T11:59:37.963Z,61.10
2018-02-19T12:02:05.431Z,59.86
2018-02-19T12:04:32.922Z,59.67
2018-02-19T12:07:00.400Z,57.94
2018-02-19T12:09:27.876Z,57.32
2018-02-19T12:11:55.464Z,61.67
2018-02-19T12:14:23.815Z,59.17
2018-02-19T12:16:51.280Z,58.81
2018-02-19T12:19:18.763Z,57.01
2018-02-19T12:21:46.239Z,57.56
2018-02-19T12:24:16.760Z,56.88
2018-02-19T12:26:44.230Z,56.49
2018-02-19T12:29:11.733Z,55.79
2018-02-19T12:31:39.207Z,57.28
2018-02-19T12:34:06.701Z,56.28
2018-02-19T12:36:34.175Z,55.45
2018-02-19T12:39:01.655Z,54.38
2018-02-19T12:41:29.127Z,55.14
2018-02-19T12:43:56.618Z,53.14
2018-02-19T12:46:24.083Z,56.37
2018-02-19T12:48:51.579Z,56.30
2018-02-19T12:51:19.055Z,55.45
2018-02-19T12:53:46.554Z,53.88
2018-02-19T12:56:14.023Z,53.06
2018-02-19T12:58:41.516Z,51.11
2018-02-19T13:01:08.984Z,55.12
2018-02-19T13:03:36.461Z,53.43
2018-02-19T13:06:03.947Z,52.35
2018-02-19T13:08:31.403Z,53.50
2018-02-19T13:10:58.883Z,55.38
2018-02-19T13:13:26.347Z,52.58
2018-02-19T13:15:53.831Z,51.49
2018-02-19T13:18:21.356Z,51.02
2018-02-19T13:20:48.847Z,51.30
2018-02-19T13:23:16.314Z,50.71
2018-02-19T13:25:43.804Z,50.40
2018-02-19T13:28:11.263Z,50.84
2018-02-19T13:30:38.752Z,51.58
2018-02-19T13:33:06.224Z,50.37
2018-02-19T13:35:33.716Z,51.01
2018-02-19T13:38:01.179Z,52.55
2018-02-19T13:40:28.664Z,54.11
2018-02-19T13:42:56.131Z,54.04
2018-02-19T13:45:23.623Z,53.88
2018-02-19T13:47:51.087Z,52.67
2018-02-19T13:50:18.576Z,53.01
2018-02-19T13:52:46.867Z,52.67
2018-02-19T13:55:14.354Z,55.24
2018-02-19T13:57:41.831Z,54.94
2018-02-19T14:00:10.036Z,52.10
2018-02-19T14:02:37.503Z,51.68
2018-02-19T14:05:04.991Z,52.45
2018-02-19T14:07:32.465Z,52.00
2018-02-19T14:09:59.959Z,50.93
2018-02-19T14:12:28.368Z,52.62
2018-02-19T14:14:55.850Z,53.79
2018-02-19T14:17:23.319Z,53.26
2018-02-19T14:19:50.811Z,52.58
2018-02-19T14:22:19.273Z,52.46
2018-02-19T14:24:46.746Z,51.37
2018-02-19T14:27:14.234Z,52.18
2018-02-19T14:29:41.703Z,52.41
2018-02-19T14:32:09.211Z,52.72
2018-02-19T14:34:36.673Z,52.05
2018-02-19T14:37:04.159Z,53.79
2018-02-19T14:39:31.635Z,52.70
2018-02-19T14:42:13.443Z,55.15
2018-02-19T14:44:40.916Z,54.76
2018-02-19T14:47:08.415Z,54.04
2018-02-19T14:49:36.736Z,54.14
2018-02-19T14:52:04.236Z,53.35
2018-02-19T14:54:31.703Z,56.08
2018-02-19T14:56:59.184Z,54.51
2018-02-19T14:59:26.664Z,54.68
2018-02-19T15:01:54.156Z,56.04
2018-02-19T15:04:21.636Z,55.21
2018-02-19T15:06:49.123Z,55.52
2018-02-19T15:09:16.599Z,54.89
2018-02-19T15:11:44.080Z,55.18
2018-02-19T15:14:12.465Z,55.11
2018-02-19T15:16:39.951Z,55.95
2018-02-19T15:19:07.411Z,56.75
2018-02-19T15:21:34.895Z,57.42
2018-02-19T15:24:02.360Z,55.43
2018-02-19T15:26:29.847Z,56.15
2018-02-19T15:28:57.323Z,57.28
2018-02-19T15:31:24.799Z,57.02
2018-02-19T15:33:52.284Z,59.14
2018-02-19T15:36:19.774Z,58.18
2018-02-19T15:38:47.252Z,60.29
2018-02-19T15:41:14.743Z,60.27
2018-02-19T15:43:42.214Z,59.63
2018-02-19T15:46:09.695Z,61.10
2018-02-19T15:48:37.171Z,60.96
2018-02-19T15:51:04.662Z,61.87
2018-02-19T15:53:32.128Z,61.07
2018-02-19T15:55:59.620Z,60.19
2018-02-19T15:58:27.099Z,60.35
2018-02-19T16:00:54.564Z,60.15
2018-02-19T16:03:22.051Z,60.25
2018-02-19T16:05:49.510Z,60.90
2018-02-19T16:08:18.022Z,59.34
2018-02-19T16:10:45.536Z,59.51
2018-02-19T16:13:13.052Z,59.64
2018-02-19T16:15:40.793Z,60.84
2018-02-19T16:18:08.318Z,61.26
2018-02-19T16:20:35.837Z,59.13
2018-02-19T16:23:03.418Z,59.31
2018-02-19T16:25:36.512Z,59.81
2018-02-19T16:28:04.139Z,59.59
2018-02-19T16:30:31.725Z,61.78
2018-02-19T16:32:59.287Z,62.84
2018-02-19T16:35:26.829Z,63.05
2018-02-19T16:37:54.393Z,63.15
2018-02-19T16:40:22.022Z,63.59
2018-02-19T16:42:49.592Z,63.36
2018-02-19T16:45:18.235Z,63.48
2018-02-19T16:50:17.836Z,63.51
2018-02-19T16:55:17.696Z,64.04
2018-02-19T16:57:45.241Z,65.56
2018-02-19T17:00:12.765Z,65.99
2018-02-19T17:05:21.544Z,66.30
2018-02-19T17:07:49.462Z,66.90
2018-02-19T17:10:17.477Z,67.05
2018-02-19T17:12:46.269Z,67.17
2018-02-19T17:15:13.877Z,66.47
2018-02-19T17:17:41.397Z,66.54
2018-02-19T17:20:08.972Z,67.89
2018-02-19T17:22:36.481Z,68.24
2018-02-19T17:25:04.104Z,69.09
2018-02-19T17:27:32.680Z,70.52
2018-02-19T17:30:00.281Z,70.74
2018-02-19T17:32:27.872Z,70.50
2018-02-19T17:34:55.492Z,70.12
2018-02-19T17:37:23.062Z,69.19
2018-02-19T17:39:50.632Z,69.60
2018-02-19T17:42:18.189Z,70.91
2018-02-19T17:44:45.733Z,71.74
2018-02-19T17:47:13.339Z,71.82
2018-02-19T17:49:40.883Z,72.81
2018-02-19T17:52:09.549Z,72.93
2018-02-19T17:54:37.107Z,73.02
2018-02-19T17:57:04.851Z,73.60
2018-02-19T17:59:32.736Z,74.08
2018-02-19T18:02:00.277Z,74.34
2018-02-19T18:04:27.920Z,73.91
2018-02-19T18:06:55.420Z,73.76
2018-02-19T18:09:23.058Z,73.62
2018-02-19T18:11:50.640Z,73.71
2018-02-19T18:14:18.211Z,73.96
2018-02-19T18:16:45.996Z,73.78
2018-02-19T18:19:13.601Z,74.19
2018-02-19T18:24:14.347Z,73.74
2018-02-19T18:26:41.899Z,74.21
2018-02-19T18:29:09.468Z,74.10
2018-02-19T18:31:37.012Z,74.17
2018-02-19T18:34:04.563Z,74.26
2018-02-19T18:36:32.128Z,74.70
2018-02-19T18:41:31.561Z,74.33
2018-02-19T18:43:59.980Z,73.81
2018-02-19T18:46:27.652Z,73.89
2018-02-19T18:48:55.273Z,74.07
2018-02-19T18:51:23.276Z,73.98
2018-02-19T18:53:50.849Z,74.33
2018-02-19T18:56:18.377Z,74.12
2018-02-19T18:58:46.001Z,73.98
2018-02-19T19:01:13.550Z,74.45
2018-02-19T19:03:42.047Z,74.75
2018-02-19T19:06:09.551Z,74.28
2018-02-19T19:08:49.251Z,74.40
2018-02-19T19:11:16.719Z,74.53
2018-02-19T19:13:44.219Z,73.60
2018-02-19T19:16:11.700Z,73.54
2018-02-19T19:18:39.188Z,74.07
2018-02-19T19:21:06.676Z,74.09
2018-02-19T19:23:34.185Z,74.03
2018-02-19T19:26:01.679Z,74.28
2018-02-19T19:28:29.166Z,74.38
2018-02-19T19:30:56.683Z,74.52
2018-02-19T19:33:24.200Z,74.20
2018-02-19T19:35:51.702Z,73.64
2018-02-19T19:38:19.176Z,74.06
2018-02-19T19:40:46.827Z,74.37
2018-02-19T19:43:14.312Z,74.60
2018-02-19T19:45:41.827Z,74.41
2018-02-19T19:48:09.312Z,74.41
2018-02-19T19:50:36.804Z,74.28
2018-02-19T19:53:04.294Z,74.59
2018-02-19T19:55:31.835Z,74.86
2018-02-19T19:57:59.329Z,75.08
2018-02-19T20:00:27.113Z,75.28
2018-02-19T20:02:55.054Z,74.98
2018-02-19T20:05:22.578Z,74.98
2018-02-19T20:07:50.047Z,75.06
2018-02-19T20:10:17.591Z,75.38
2018-02-19T20:12:45.076Z,75.46
2018-02-19T20:15:12.596Z,75.50
2018-02-19T20:17:40.072Z,76.08
2018-02-19T20:20:07.573Z,76.22
2018-02-19T20:22:35.043Z,76.37
2018-02-19T20:25:02.545Z,76.43
2018-02-19T20:27:30.147Z,76.51
2018-02-19T20:29:57.729Z,76.58
2018-02-19T20:32:25.264Z,76.57
2018-02-19T20:34:52.844Z,76.85
2018-02-19T20:37:20.507Z,77.51
2018-02-19T20:39:48.020Z,78.54
2018-02-19T20:42:15.514Z,78.55
2018-02-19T20:44:43.100Z,78.82
2018-02-19T20:47:10.720Z,78.70
2018-02-19T20:49:38.386Z,78.78
2018-02-19T20:52:05.922Z,78.84
2018-02-19T20:54:33.627Z,79.04
2018-02-19T20:57:01.129Z,79.27
2018-02-19T20:59:28.667Z,79.28
2018-02-19T21:01:56.165Z,79.02
2018-02-19T21:04:23.672Z,79.34
2018-02-19T21:06:51.289Z,79.68
2018-02-19T21:09:18.927Z,80.11
2018-02-19T21:11:46.468Z,79.84
2018-02-19T21:14:13.958Z,79.86
2018-02-19T21:16:41.642Z,79.90
2018-02-19T21:19:09.273Z,79.49
2018-02-19T21:21:36.819Z,79.45
2018-02-19T21:24:04.479Z,79.48
2018-02-19T21:26:31.989Z,79.58
2018-02-19T21:28:59.489Z,79.53
2018-02-19T21:31:26.987Z,79.48
2018-02-19T21:33:54.709Z,79.80
2018-02-19T21:36:22.214Z,79.60
2018-02-19T21:38:49.707Z,79.53
2018-02-19T21:41:17.265Z,79.99
2018-02-19T21:43:44.870Z,80.23
2018-02-19T21:46:12.405Z,80.06
2018-02-19T21:48:40.073Z,79.79
2018-02-19T21:51:07.545Z,79.24
2018-02-19T21:53:35.044Z,79.26
2018-02-19T21:56:02.601Z,78.94
2018-02-19T21:58:30.103Z,78.91
2018-02-19T22:00:57.763Z,78.77
2018-02-19T22:03:25.274Z,79.29
2018-02-19T22:05:52.744Z,79.47
2018-02-19T22:08:20.249Z,78.83
2018-02-19T22:10:47.720Z,79.23
2018-02-19T22:13:15.211Z,79.44
2018-02-19T22:15:42.680Z,79.48
2018-02-19T22:18:10.172Z,79.55
2018-02-19T22:20:37.658Z,79.49
2018-02-19T22:23:05.203Z,79.64
2018-02-19T22:25:32.668Z,80.32
2018-02-19T22:28:00.645Z,81.36
2018-02-19T22:30:28.527Z,81.80
2018-02-19T22:32:56.049Z,81.95
2018-02-19T22:35:23.561Z,82.05
2018-02-19T22:37:51.016Z,82.19
2018-02-19T22:40:18.515Z,82.31
2018-02-19T22:42:46.013Z,82.40
2018-02-19T22:45:13.488Z,82.79
2018-02-19T22:47:40.975Z,83.21
2018-02-19T22:50:08.456Z,83.58
2018-02-19T22:52:35.969Z,84.08
2018-02-19T22:55:03.443Z,84.49
2018-02-19T22:57:30.931Z,84.89
2018-02-19T22:59:58.395Z,85.27
2018-02-19T23:02:25.880Z,85.50
2018-02-19T23:04:53.343Z,85.74
2018-02-19T23:07:20.824Z,86.04
2018-02-19T23:09:48.304Z,86.20
2018-02-19T23:12:15.792Z,86.36
2018-02-19T23:14:43.249Z,86.66
2018-02-19T23:17:10.752Z,86.96
2018-02-19T23:19:38.211Z,87.09
2018-02-19T23:22:05.704Z,87.36
2018-02-19T23:24:33.178Z,87.79
2018-02-19T23:27:00.686Z,88.13
2018-02-19T23:29:28.176Z,88.39
2018-02-19T23:31:55.648Z,88.54
2018-02-19T23:34:23.155Z,88.80
2018-02-19T23:36:50.636Z,88.97
2018-02-19T23:39:18.135Z,89.15
2018-02-19T23:41:45.608Z,89.32
2018-02-19T23:44:13.116Z,89.38
2018-02-19T23:46:40.590Z,89.42
2018-02-19T23:49:08.092Z,89.59
2018-02-19T23:51:35.564Z,89.63
2018-02-19T23:54:03.062Z,89.67
2018-02-19T23:56:30.541Z,89.64
2018-02-19T23:58:58.037Z,89.72
